»·PEaware :: N28114 KPHX-KABQ

N28114 :: KPHX-KABQ

FLIGHT INFORMATION

Flight Status: Arrived
Operator: Privately registered:
United States
More flights under this callsign
Pilot: Jacob R. (31818)
Aircraft: PIPER PA-44 SEMINOLE
(PA44)
More flights by this aircraft type
Origin: KPHX Phoenix Sky Harbor Intl
United States
Destination: KABQ Albuquerque Intl Sunport
United States
More flights between these airports :: More routes between these airports
Route: PXR V190 SJN LAVAN3
File this flight plan on PilotEdge
Remarks:
Altitude:
(Current/Filed)
13,000ft
Speed:
(Current/Filed)
150kts
Departed: 24-Jan-23 08:41 PM
Arrived: 24-Jan-23 10:22 PM
Distance/Time
Traveled:
284nm/1:40
Distance/Time
To Go:
Arrived

Flight Plot

Page will automatically refresh every two minutes.

Flight plan parsing failed; only flown route is shown


Map Options




Map Legend


Flown Route
Filed Route
Departure Airport
Arrival Airport
Navaid (VOR, NDB)
Fix

Horizontal Profiles

Position Reports

Time Latitude Longitude Heading Altitude Ground
Speed
24-Jan-23 20:02 33.443125 -112.025918 233 1114ft 0kts
24-Jan-23 20:03 33.443125 -112.025918 233 1114ft 0kts
24-Jan-23 20:04 33.443125 -112.025918 233 1114ft 0kts
24-Jan-23 20:05 33.443125 -112.025918 233 1114ft 0kts
24-Jan-23 20:06 33.443125 -112.025918 233 1114ft 0kts
24-Jan-23 20:07 33.443125 -112.025918 233 1114ft 0kts
24-Jan-23 20:08 33.443125 -112.025918 233 1114ft 0kts
24-Jan-23 20:09 33.443125 -112.025918 233 1114ft 0kts
24-Jan-23 20:10 33.443125 -112.025918 233 1114ft 0kts
24-Jan-23 20:11 33.443125 -112.025918 233 1114ft 0kts
24-Jan-23 20:12 33.443125 -112.025918 233 1114ft 0kts
24-Jan-23 20:13 33.443125 -112.025918 233 1114ft 0kts
24-Jan-23 20:14 33.443125 -112.025918 233 1114ft 0kts
24-Jan-23 20:16 33.443125 -112.025918 233 1114ft 0kts
24-Jan-23 20:17 33.443125 -112.025918 233 1114ft 0kts
24-Jan-23 20:18 33.443125 -112.025918 233 1114ft 0kts
24-Jan-23 20:19 33.443125 -112.025918 233 1114ft 0kts
24-Jan-23 20:20 33.443125 -112.025918 233 1114ft 0kts
24-Jan-23 20:21 33.443125 -112.025918 233 1114ft 0kts
24-Jan-23 20:22 33.443125 -112.025918 233 1114ft 0kts
24-Jan-23 20:23 33.443125 -112.025918 233 1114ft 0kts
24-Jan-23 20:24 33.443125 -112.025918 233 1114ft 0kts
24-Jan-23 20:25 33.443125 -112.025918 233 1114ft 0kts
24-Jan-23 20:26 33.443125 -112.025918 233 1114ft 0kts
24-Jan-23 20:27 33.443125 -112.025918 233 1114ft 0kts
24-Jan-23 20:28 33.443125 -112.025918 233 1114ft 0kts
24-Jan-23 20:29 33.443125 -112.025918 233 1114ft 0kts
24-Jan-23 20:30 33.443125 -112.025918 233 1114ft 0kts
24-Jan-23 20:31 33.443125 -112.025918 233 1114ft 0kts
24-Jan-23 20:32 33.443125 -112.025918 233 1114ft 0kts
24-Jan-23 20:33 33.443119 -112.025929 233 1114ft 0kts
24-Jan-23 20:34 33.442516 -112.026838 273 1114ft 8kts
24-Jan-23 20:35 33.441963 -112.029046 269 1111ft 5kts
24-Jan-23 20:36 33.441886 -112.029442 236 1111ft 0kts
24-Jan-23 20:37 33.441886 -112.029442 236 1111ft 0kts
24-Jan-23 20:38 33.441886 -112.029442 236 1111ft 0kts
24-Jan-23 20:39 33.441886 -112.029442 236 1111ft 0kts
24-Jan-23 20:40 33.441886 -112.029442 236 1111ft 0kts
24-Jan-23 20:41 33.440404 -112.024257 101 1187ft 69kts
24-Jan-23 20:41 33.440761 -111.992513 90 1715ft 117kts
24-Jan-23 20:43 33.454249 -111.954660 59 2740ft 105kts
24-Jan-23 20:44 33.468636 -111.924478 59 3519ft 103kts
24-Jan-23 20:45 33.482811 -111.894753 59 4256ft 103kts
24-Jan-23 20:46 33.497526 -111.863973 60 5083ft 110kts
24-Jan-23 20:46 33.510334 -111.837435 60 5843ft 110kts
24-Jan-23 20:47 33.520768 -111.803650 79 6720ft 109kts
24-Jan-23 20:49 33.527089 -111.761816 79 7710ft 109kts
24-Jan-23 20:50 33.532694 -111.726096 79 8531ft 109kts
24-Jan-23 20:50 33.537535 -111.696225 79 9195ft 109kts
24-Jan-23 20:51 33.545961 -111.661356 69 9956ft 110kts
24-Jan-23 20:52 33.557866 -111.627610 68 10684ft 110kts
24-Jan-23 20:53 33.570049 -111.593947 68 11378ft 110kts
24-Jan-23 20:55 33.584356 -111.554441 68 12151ft 111kts
24-Jan-23 20:55 33.594584 -111.526178 69 12679ft 111kts
24-Jan-23 20:56 33.607461 -111.490292 69 13047ft 138kts
24-Jan-23 20:57 33.624796 -111.442234 68 13038ft 167kts
24-Jan-23 20:58 33.643704 -111.389774 68 13036ft 173kts
24-Jan-23 20:59 33.662892 -111.336420 69 13037ft 174kts
24-Jan-23 21:00 33.682037 -111.283084 69 13037ft 174kts
24-Jan-23 21:01 33.701168 -111.229694 69 13034ft 174kts
24-Jan-23 21:02 33.720284 -111.176270 69 13030ft 174kts
24-Jan-23 21:03 33.739491 -111.122497 69 13024ft 174kts
24-Jan-23 21:04 33.758624 -111.068835 69 13019ft 175kts
24-Jan-23 21:05 33.777943 -111.014547 69 13018ft 177kts
24-Jan-23 21:06 33.797391 -110.959808 69 13019ft 178kts
24-Jan-23 21:07 33.816957 -110.904643 69 13019ft 180kts
24-Jan-23 21:08 33.836660 -110.848996 69 13017ft 181kts
24-Jan-23 21:09 33.856409 -110.793128 69 13013ft 181kts
24-Jan-23 21:10 33.876131 -110.737223 69 13009ft 181kts
24-Jan-23 21:11 33.895854 -110.681230 69 13005ft 182kts
24-Jan-23 21:12 33.915614 -110.625028 69 13001ft 182kts
24-Jan-23 21:13 33.935240 -110.569114 69 13001ft 182kts
24-Jan-23 21:14 33.954888 -110.513014 69 13002ft 182kts
24-Jan-23 21:15 33.974776 -110.456129 69 13002ft 182kts
24-Jan-23 21:16 33.994366 -110.399997 69 13001ft 182kts
24-Jan-23 21:17 34.013917 -110.343880 70 13001ft 182kts
24-Jan-23 21:18 34.033517 -110.287525 70 13001ft 181kts
24-Jan-23 21:19 34.053165 -110.230966 70 13001ft 182kts
24-Jan-23 21:20 34.072935 -110.173991 70 13001ft 181kts
24-Jan-23 21:21 34.092741 -110.116785 70 13001ft 182kts
24-Jan-23 21:22 34.112331 -110.060071 70 12998ft 181kts
24-Jan-23 21:23 34.131830 -110.003525 70 12998ft 181kts
24-Jan-23 21:24 34.151570 -109.946168 70 12999ft 181kts
24-Jan-23 21:25 34.171162 -109.889134 70 12997ft 181kts
24-Jan-23 21:26 34.190425 -109.832958 70 12995ft 181kts
24-Jan-23 21:27 34.209560 -109.777086 70 13092ft 177kts
24-Jan-23 21:28 34.228601 -109.721328 70 13097ft 180kts
24-Jan-23 21:29 34.247682 -109.665388 70 13099ft 180kts
24-Jan-23 21:30 34.266800 -109.609238 70 13093ft 181kts
24-Jan-23 21:31 34.285958 -109.552867 70 13086ft 181kts
24-Jan-23 21:32 34.305092 -109.496468 70 13080ft 181kts
24-Jan-23 21:33 34.324194 -109.440062 70 13074ft 181kts
24-Jan-23 21:34 34.343211 -109.383801 70 13073ft 181kts
24-Jan-23 21:35 34.362268 -109.327324 70 13072ft 181kts
24-Jan-23 21:36 34.381263 -109.270924 70 13072ft 181kts
24-Jan-23 21:37 34.400226 -109.214516 70 13072ft 181kts
24-Jan-23 21:38 34.419138 -109.158120 70 13072ft 181kts
24-Jan-23 21:39 34.431601 -109.099113 80 13072ft 181kts
24-Jan-23 21:40 34.441965 -109.039250 79 13073ft 182kts
24-Jan-23 21:41 34.452290 -108.979030 79 13073ft 183kts
24-Jan-23 21:42 34.462661 -108.918417 78 13073ft 184kts
24-Jan-23 21:43 34.473029 -108.857586 78 13073ft 184kts
24-Jan-23 21:44 34.483465 -108.796114 78 13073ft 184kts
24-Jan-23 21:45 34.494022 -108.733725 78 13073ft 184kts
24-Jan-23 21:46 34.504670 -108.670589 78 13069ft 184kts
24-Jan-23 21:47 34.515326 -108.607198 78 13059ft 184kts
24-Jan-23 21:48 34.526037 -108.543264 78 13049ft 185kts
24-Jan-23 21:49 34.537339 -108.475566 78 13036ft 185kts
24-Jan-23 21:50 34.548911 -108.406007 78 13031ft 184kts
24-Jan-23 21:51 34.560127 -108.338345 79 13027ft 184kts
24-Jan-23 21:52 34.571477 -108.269610 79 13026ft 184kts
24-Jan-23 21:53 34.582832 -108.200597 79 13027ft 184kts
24-Jan-23 21:54 34.594185 -108.131342 79 13027ft 184kts
24-Jan-23 21:55 34.605544 -108.061795 79 13027ft 184kts
24-Jan-23 21:56 34.616823 -107.992470 79 13027ft 184kts
24-Jan-23 21:57 34.627841 -107.924503 79 13027ft 184kts
24-Jan-23 21:58 34.638986 -107.855499 79 13027ft 184kts
24-Jan-23 21:59 34.649765 -107.788490 79 13028ft 184kts
24-Jan-23 22:00 34.659733 -107.726376 79 13027ft 184kts
24-Jan-23 22:01 34.682348 -107.668294 62 13028ft 184kts
24-Jan-23 22:02 34.707337 -107.609900 61 13028ft 184kts
24-Jan-23 22:03 34.731623 -107.553218 61 13028ft 184kts
24-Jan-23 22:04 34.755981 -107.496289 61 13025ft 184kts
24-Jan-23 22:05 34.780354 -107.439235 61 13011ft 184kts
24-Jan-23 22:06 34.802491 -107.378696 69 12123ft 213kts
24-Jan-23 22:07 34.822549 -107.310936 68 11114ft 207kts
24-Jan-23 22:08 34.841494 -107.248681 69 10970ft 186kts
24-Jan-23 22:09 34.858751 -107.191272 71 10603ft 176kts
24-Jan-23 22:10 34.877266 -107.130690 66 9741ft 201kts
24-Jan-23 22:11 34.898039 -107.066967 69 8782ft 200kts
24-Jan-23 22:12 34.915261 -107.006056 69 8483ft 179kts
24-Jan-23 22:13 34.932881 -106.947044 69 7967ft 187kts
24-Jan-23 22:14 34.947975 -106.889937 77 7990ft 174kts
24-Jan-23 22:15 34.956108 -106.832084 80 7977ft 172kts
24-Jan-23 22:16 34.961216 -106.773837 81 8000ft 171kts
24-Jan-23 22:17 34.967387 -106.713697 78 7226ft 179kts
24-Jan-23 22:18 34.987880 -106.671427 40 6251ft 102kts
24-Jan-23 22:19 35.005069 -106.651146 37 5811ft 81kts
24-Jan-23 22:20 35.021132 -106.632019 39 5361ft 75kts
24-Jan-23 22:21 35.026472 -106.627012 318 5305ft 10kts
24-Jan-23 22:22 35.028865 -106.624745 43 5310ft 20kts
24-Jan-23 22:23 35.032947 -106.619813 45 5310ft 18kts
24-Jan-23 22:24 35.034862 -106.619951 228 5310ft 0kts
24-Jan-23 22:25 35.034862 -106.619951 228 5310ft 0kts

Navigation Log

Ident Type
Flight plan parsing failed, navigation log unavailable